Time;durP1;ratioP1;P1;durP2;ratioP2;P2;SDS_P1;SDS_P2;PMS_P1;PMS_P2;Temp;Humidity;BMP_temperature;BMP_pressure;BME280_temperature;BME280_humidity;BME280_pressure;Samples;Min_cycle;Max_cycle;Signal;HPM_P1;HPM_P2
2023/03/25 00:01:32;;;;;;;11.50;1.65;;;10.20;99.90;;;;;;5014237;28;20419;-76
2023/03/25 00:03:59;;;;;;;11.20;1.98;;;10.30;99.90;;;;;;5010116;28;20405;-76
2023/03/25 00:06:27;;;;;;;8.80;1.77;;;10.30;99.90;;;;;;5009989;28;20480;-77
2023/03/25 00:08:53;;;;;;;11.17;1.83;;;10.30;99.90;;;;;;5004736;28;20413;-76
2023/03/25 00:11:19;;;;;;;11.57;1.80;;;10.30;99.90;;;;;;5008402;28;20437;-76
2023/03/25 00:13:45;;;;;;;12.75;2.00;;;10.30;99.90;;;;;;5010126;28;20456;-77
2023/03/25 00:16:10;;;;;;;10.97;2.00;;;10.40;99.90;;;;;;5010686;28;20785;-76
2023/03/25 00:18:39;;;;;;;10.70;1.52;;;10.30;99.90;;;;;;5012139;28;20428;-77
2023/03/25 00:21:09;;;;;;;14.27;2.45;;;10.40;99.90;;;;;;5038980;28;20428;-77
2023/03/25 00:23:35;;;;;;;13.37;2.37;;;10.40;99.90;;;;;;5012547;28;20985;-77
2023/03/25 00:26:01;;;;;;;13.17;2.17;;;10.30;99.90;;;;;;5012157;28;20413;-76
2023/03/25 00:28:30;;;;;;;9.95;2.33;;;10.40;99.90;;;;;;5004563;28;20449;-76
2023/03/25 00:31:05;;;;;;;11.65;1.90;;;10.30;99.90;;;;;;5002361;28;20420;-76
2023/03/25 00:33:32;;;;;;;14.65;1.85;;;10.40;99.90;;;;;;5003649;28;20428;-76
2023/03/25 00:36:00;;;;;;;14.75;2.22;;;10.40;99.90;;;;;;5002185;28;20486;-76
2023/03/25 00:38:32;;;;;;;15.05;2.65;;;10.40;99.90;;;;;;4982771;28;21104;-76
2023/03/25 00:41:24;;;;;;;16.30;2.25;;;10.40;99.90;;;;;;5008083;28;20440;-77
2023/03/25 00:44:11;;;;;;;13.93;2.20;;;10.40;99.90;;;;;;5006009;28;20453;-77
2023/03/25 00:46:37;;;;;;;14.20;2.20;;;10.30;99.90;;;;;;5007780;28;20856;-77
2023/03/25 00:49:03;;;;;;;14.10;2.07;;;10.30;99.90;;;;;;5007790;28;20491;-76
2023/03/25 00:51:30;;;;;;;11.33;2.20;;;10.40;99.90;;;;;;5007541;28;20401;-77
2023/03/25 00:54:00;;;;;;;14.30;2.25;;;10.40;99.90;;;;;;5012737;28;20446;-77
2023/03/25 00:56:27;;;;;;;11.80;1.98;;;10.40;99.90;;;;;;5012281;28;20405;-77
2023/03/25 00:58:52;;;;;;;13.18;2.05;;;10.30;99.90;;;;;;5013826;28;20911;-76
2023/03/25 01:01:22;;;;;;;15.98;2.40;;;10.20;99.90;;;;;;5007886;28;20421;-77
2023/03/25 01:03:56;;;;;;;14.30;2.30;;;10.10;99.90;;;;;;5005997;28;20424;-77
2023/03/25 01:06:27;;;;;;;12.35;2.70;;;10.00;99.90;;;;;;4989519;28;20453;-77
2023/03/25 01:08:55;;;;;;;12.30;2.17;;;9.90;99.90;;;;;;5007661;28;20448;-77
2023/03/25 01:11:37;;;;;;;15.02;2.25;;;9.80;99.90;;;;;;5017703;28;20407;-77
2023/03/25 01:14:04;;;;;;;14.23;2.93;;;9.80;99.90;;;;;;5017019;28;20403;-77
2023/03/25 01:16:31;;;;;;;12.77;2.22;;;9.80;99.90;;;;;;5008593;28;20436;-77
2023/03/25 01:18:56;;;;;;;17.47;2.77;;;9.80;99.90;;;;;;5006970;28;20409;-77
2023/03/25 01:21:22;;;;;;;13.13;2.90;;;9.80;99.90;;;;;;5007873;28;20413;-77
2023/03/25 01:23:48;;;;;;;20.38;2.90;;;9.80;99.90;;;;;;5018533;28;20414;-77
2023/03/25 01:26:14;;;;;;;11.90;2.10;;;9.80;99.90;;;;;;5010209;28;20485;-77
2023/03/25 01:28:44;;;;;;;17.90;2.92;;;9.80;99.90;;;;;;5007492;28;20425;-77
2023/03/25 01:31:12;;;;;;;16.70;2.55;;;9.80;99.90;;;;;;5008056;28;20524;-77
2023/03/25 01:33:38;;;;;;;18.60;3.28;;;9.80;99.90;;;;;;5014619;28;20419;-77
2023/03/25 01:36:08;;;;;;;15.97;2.60;;;9.70;99.90;;;;;;5012381;28;20729;-77
2023/03/25 01:38:35;;;;;;;15.77;3.40;;;9.70;99.90;;;;;;5011365;28;20440;-77
2023/03/25 01:41:01;;;;;;;17.35;2.67;;;9.70;99.90;;;;;;5012379;28;20431;-77
2023/03/25 01:43:27;;;;;;;14.63;2.63;;;9.60;99.90;;;;;;5010854;28;20492;-77
2023/03/25 01:45:52;;;;;;;20.05;3.15;;;9.60;99.90;;;;;;5007450;28;20574;-77
2023/03/25 01:48:23;;;;;;;15.63;3.33;;;9.60;99.90;;;;;;5008290;28;20416;-77
2023/03/25 01:50:56;;;;;;;13.77;2.53;;;9.50;99.90;;;;;;5007665;28;20409;-77
2023/03/25 01:53:21;;;;;;;20.60;3.10;;;9.50;99.90;;;;;;5003757;28;20427;-77
2023/03/25 01:55:51;;;;;;;15.88;2.65;;;9.50;99.90;;;;;;5008140;28;20409;-77
2023/03/25 01:58:18;;;;;;;14.95;2.55;;;9.50;99.90;;;;;;5007266;28;20796;-77
2023/03/25 02:00:44;;;;;;;18.70;2.83;;;9.50;99.90;;;;;;5008967;28;20405;-77
2023/03/25 02:03:11;;;;;;;15.73;3.10;;;9.40;99.90;;;;;;5008158;28;20504;-77
2023/03/25 02:05:55;;;;;;;16.13;3.05;;;9.40;99.90;;;;;;5008149;28;20488;-77
2023/03/25 02:08:22;;;;;;;15.33;2.57;;;9.30;99.90;;;;;;5005659;28;20429;-77
2023/03/25 02:10:48;;;;;;;19.73;3.20;;;9.30;99.90;;;;;;5006482;28;20561;-77
2023/03/25 02:13:15;;;;;;;16.90;3.07;;;9.20;99.90;;;;;;5006022;28;20985;-77
2023/03/25 02:15:57;;;;;;;22.65;3.30;;;9.20;99.90;;;;;;5006153;28;20409;-77
2023/03/25 02:18:40;;;;;;;19.95;3.35;;;9.20;99.90;;;;;;4999686;28;20443;-77
2023/03/25 02:21:22;;;;;;;18.80;3.30;;;9.20;99.90;;;;;;5012721;28;20508;-77
2023/03/25 02:23:56;;;;;;;17.42;3.38;;;9.10;99.90;;;;;;5017959;28;20439;-77
2023/03/25 02:26:35;;;;;;;21.60;3.15;;;9.10;99.90;;;;;;5015099;28;20467;-77
2023/03/25 02:29:11;;;;;;;19.77;3.72;;;9.10;99.90;;;;;;5003305;28;20421;-76
2023/03/25 02:31:52;;;;;;;25.63;3.88;;;9.00;99.90;;;;;;5005169;28;20421;-76
2023/03/25 02:34:28;;;;;;;23.58;3.78;;;9.00;99.90;;;;;;5007239;28;20419;-76
2023/03/25 02:37:20;;;;;;;24.13;3.72;;;9.00;99.90;;;;;;5010840;28;20447;-76
2023/03/25 02:39:54;;;;;;;24.98;4.68;;;9.00;99.90;;;;;;5009692;28;20433;-76
2023/03/25 02:42:26;;;;;;;23.20;3.40;;;9.00;99.90;;;;;;5013992;28;20417;-76
2023/03/25 02:45:25;;;;;;;22.42;3.78;;;8.90;99.90;;;;;;5016165;28;20410;-76
2023/03/25 02:47:58;;;;;;;22.90;3.95;;;8.90;99.90;;;;;;5004750;28;20420;-75
2023/03/25 02:50:35;;;;;;;21.58;3.63;;;8.90;99.90;;;;;;5014176;28;20397;-75
2023/03/25 02:53:07;;;;;;;24.27;4.53;;;9.00;99.90;;;;;;5016079;28;20533;-75
2023/03/25 02:55:34;;;;;;;22.67;4.30;;;8.90;99.90;;;;;;5011008;28;20424;-77
2023/03/25 02:58:03;;;;;;;21.67;3.47;;;8.90;99.90;;;;;;5006381;28;20448;-75
2023/03/25 03:00:30;;;;;;;24.15;4.10;;;8.90;99.90;;;;;;4998807;28;20912;-75
2023/03/25 03:03:04;;;;;;;22.35;3.72;;;8.90;99.90;;;;;;5005305;28;20496;-75
2023/03/25 03:05:37;;;;;;;19.42;3.00;;;8.90;99.90;;;;;;5006273;28;20531;-75
2023/03/25 03:08:37;;;;;;;26.73;4.40;;;8.90;99.90;;;;;;5015828;28;20421;-74
2023/03/25 03:11:19;;;;;;;30.13;5.20;;;9.00;99.90;;;;;;5016780;28;20411;-75
2023/03/25 03:14:15;;;;;;;25.92;4.53;;;8.90;99.90;;;;;;5013952;28;20452;-74
2023/03/25 03:17:05;;;;;;;23.80;3.75;;;9.00;99.90;;;;;;5041025;28;20424;-74
2023/03/25 03:19:47;;;;;;;28.73;4.07;;;9.00;99.90;;;;;;5009614;28;20937;-76
2023/03/25 03:22:34;;;;;;;29.48;4.50;;;9.00;99.90;;;;;;5016275;28;20506;-75
2023/03/25 03:25:19;;;;;;;27.98;4.25;;;9.00;99.90;;;;;;5007171;28;20533;-76
2023/03/25 03:27:55;;;;;;;27.00;4.53;;;9.00;99.90;;;;;;5008467;28;20432;-75
2023/03/25 03:30:47;;;;;;;28.25;4.13;;;9.10;99.90;;;;;;5004572;28;20421;-76
2023/03/25 03:33:37;;;;;;;24.48;3.92;;;9.10;99.90;;;;;;5004800;28;20780;-76
2023/03/25 03:36:08;;;;;;;31.52;4.65;;;9.10;99.90;;;;;;4997347;28;20424;-76
2023/03/25 03:38:45;;;;;;;22.05;4.53;;;9.10;99.90;;;;;;5005192;28;20790;-76
2023/03/25 03:41:16;;;;;;;27.27;4.45;;;9.10;99.90;;;;;;5004417;28;20520;-76
2023/03/25 03:43:54;;;;;;;25.63;4.17;;;9.10;99.90;;;;;;4988019;28;20420;-76
2023/03/25 03:46:37;;;;;;;23.23;3.70;;;9.10;99.90;;;;;;5005169;28;20490;-76
2023/03/25 03:49:07;;;;;;;25.63;3.60;;;9.10;99.90;;;;;;5004691;28;20970;-75
2023/03/25 03:51:42;;;;;;;21.53;3.53;;;9.10;99.90;;;;;;5005360;28;20434;-76
2023/03/25 03:54:21;;;;;;;23.13;3.65;;;9.10;99.90;;;;;;5007582;28;20757;-76
2023/03/25 03:56:54;;;;;;;17.17;3.30;;;9.10;99.90;;;;;;5007378;28;20436;-76
2023/03/25 03:59:34;;;;;;;20.65;3.28;;;9.10;99.90;;;;;;5008783;28;20469;-76
2023/03/25 04:02:03;;;;;;;19.97;3.50;;;9.10;99.90;;;;;;4989804;28;20436;-76
2023/03/25 04:04:30;;;;;;;18.65;3.33;;;9.10;99.90;;;;;;5004008;28;20413;-76
2023/03/25 04:07:15;;;;;;;18.83;2.80;;;9.10;99.90;;;;;;5004102;28;20912;-76
2023/03/25 04:10:05;;;;;;;15.60;2.78;;;9.10;99.90;;;;;;5002558;28;20429;-76
2023/03/25 04:12:34;;;;;;;19.48;3.15;;;9.00;99.90;;;;;;5004108;28;20935;-76
2023/03/25 04:15:02;;;;;;;15.23;2.72;;;9.00;99.90;;;;;;5008695;28;20420;-76
2023/03/25 04:17:29;;;;;;;18.90;3.03;;;9.00;99.90;;;;;;5006319;28;20449;-76
2023/03/25 04:19:55;;;;;;;18.17;3.50;;;9.00;99.90;;;;;;5006457;28;20423;-76
2023/03/25 04:22:21;;;;;;;19.45;3.38;;;9.00;99.90;;;;;;5008284;28;20492;-76
2023/03/25 04:24:53;;;;;;;19.83;3.57;;;9.00;99.90;;;;;;5008556;28;20496;-76
2023/03/25 04:27:21;;;;;;;21.27;3.77;;;8.90;99.90;;;;;;4994308;28;20441;-76
2023/03/25 04:29:48;;;;;;;17.40;3.35;;;8.90;99.90;;;;;;5006924;28;20994;-76
2023/03/25 04:32:15;;;;;;;22.48;3.72;;;8.90;99.90;;;;;;5005158;28;20416;-76
2023/03/25 04:34:41;;;;;;;22.50;3.93;;;8.80;99.90;;;;;;5005633;28;20413;-76
2023/03/25 04:37:06;;;;;;;19.63;2.97;;;8.80;99.90;;;;;;4987716;28;20490;-76
2023/03/25 04:39:32;;;;;;;18.30;3.80;;;8.70;99.90;;;;;;5005164;28;20487;-76
2023/03/25 04:42:02;;;;;;;19.65;3.00;;;8.70;99.90;;;;;;5005291;28;20405;-76
2023/03/25 04:44:37;;;;;;;18.63;3.20;;;8.70;99.90;;;;;;4987459;28;20413;-75
2023/03/25 04:47:05;;;;;;;17.95;3.28;;;8.70;99.90;;;;;;5005587;28;20424;-76
2023/03/25 04:49:31;;;;;;;26.17;4.20;;;8.70;99.90;;;;;;5008184;28;20411;-76
2023/03/25 04:51:58;;;;;;;23.33;3.90;;;8.70;99.90;;;;;;5004947;28;20796;-76
2023/03/25 04:54:24;;;;;;;18.88;3.00;;;8.70;99.90;;;;;;5005288;28;21012;-76
2023/03/25 04:56:51;;;;;;;18.25;3.60;;;8.70;99.90;;;;;;5005285;28;20503;-76
2023/03/25 04:59:18;;;;;;;21.60;3.80;;;8.70;99.90;;;;;;5006450;28;20414;-76
2023/03/25 05:01:44;;;;;;;19.95;4.00;;;8.70;99.90;;;;;;5007397;28;20474;-76
2023/03/25 05:04:12;;;;;;;20.97;3.73;;;8.70;99.90;;;;;;5005041;28;20409;-76
2023/03/25 05:06:48;;;;;;;21.40;4.00;;;8.70;99.90;;;;;;5003632;28;20417;-76
2023/03/25 05:09:18;;;;;;;22.75;4.03;;;8.70;99.90;;;;;;5007834;28;20420;-76
2023/03/25 05:11:44;;;;;;;22.40;4.72;;;8.70;99.90;;;;;;5007059;28;20790;-76
2023/03/25 05:14:12;;;;;;;24.63;4.23;;;8.60;99.90;;;;;;5009409;28;20408;-76
2023/03/25 05:16:38;;;;;;;19.02;3.92;;;8.60;99.90;;;;;;5006461;28;20457;-76
2023/03/25 05:19:05;;;;;;;24.02;4.28;;;8.50;99.90;;;;;;5009367;28;20396;-76
2023/03/25 05:21:32;;;;;;;19.02;3.75;;;8.50;99.90;;;;;;5006972;28;20405;-76
2023/03/25 05:24:00;;;;;;;23.38;4.60;;;8.50;99.90;;;;;;5008812;28;20814;-76
2023/03/25 05:26:33;;;;;;;25.15;4.63;;;8.40;99.90;;;;;;5007762;28;20934;-76
2023/03/25 05:29:12;;;;;;;21.42;5.28;;;8.50;99.90;;;;;;5025754;28;20499;-76
2023/03/25 05:31:39;;;;;;;22.35;4.07;;;8.50;99.90;;;;;;5022713;27;20419;-76
2023/03/25 05:34:07;;;;;;;19.23;4.45;;;8.50;99.90;;;;;;5007829;28;20419;-76
2023/03/25 05:36:33;;;;;;;19.80;4.27;;;8.50;99.90;;;;;;5009956;28;20405;-76
2023/03/25 05:38:58;;;;;;;19.20;4.10;;;8.50;99.90;;;;;;5008560;28;20401;-76
2023/03/25 05:41:37;;;;;;;20.10;4.22;;;8.50;99.90;;;;;;5007773;28;20497;-76
2023/03/25 05:44:04;;;;;;;22.97;3.97;;;8.50;99.90;;;;;;5006383;28;20420;-76
2023/03/25 05:46:30;;;;;;;21.52;4.30;;;8.50;99.90;;;;;;5006991;28;20466;-77
2023/03/25 05:48:59;;;;;;;27.73;4.90;;;8.50;99.90;;;;;;5008183;28;20405;-76
2023/03/25 05:51:26;;;;;;;23.60;4.87;;;8.50;99.90;;;;;;5007061;28;20930;-76
2023/03/25 05:53:52;;;;;;;18.55;3.90;;;8.50;99.90;;;;;;5008295;28;20407;-76
2023/03/25 05:56:19;;;;;;;19.35;3.90;;;8.50;99.90;;;;;;5006931;28;20405;-76
2023/03/25 05:58:46;;;;;;;20.52;3.92;;;8.50;99.90;;;;;;5006966;28;20433;-76
2023/03/25 06:01:14;;;;;;;21.08;4.25;;;8.50;99.90;;;;;;5005902;28;20445;-76
2023/03/25 06:03:40;;;;;;;23.92;4.40;;;8.60;99.90;;;;;;5008525;28;20409;-77
2023/03/25 06:06:12;;;;;;;25.45;3.92;;;8.60;99.90;;;;;;5009036;28;20405;-76
2023/03/25 06:08:42;;;;;;;23.27;4.00;;;8.60;99.90;;;;;;5007636;28;20449;-76
2023/03/25 06:11:14;;;;;;;22.65;4.32;;;8.60;99.90;;;;;;5007782;28;20444;-76
2023/03/25 06:13:41;;;;;;;24.50;3.92;;;8.60;99.90;;;;;;5007013;28;20401;-76
2023/03/25 06:16:08;;;;;;;22.15;4.03;;;8.60;99.90;;;;;;5007429;28;20407;-76
2023/03/25 06:18:35;;;;;;;23.38;4.63;;;8.70;99.90;;;;;;5009347;28;20492;-76
2023/03/25 06:21:02;;;;;;;26.00;3.85;;;8.70;99.90;;;;;;5008357;28;20474;-76
2023/03/25 06:23:27;;;;;;;21.85;3.58;;;8.70;99.90;;;;;;5011368;28;20987;-76
2023/03/25 06:25:54;;;;;;;25.35;4.40;;;8.70;99.90;;;;;;5009204;28;20397;-76
2023/03/25 06:28:22;;;;;;;23.02;4.10;;;8.80;99.90;;;;;;5011803;28;20419;-76
2023/03/25 06:30:48;;;;;;;27.10;4.38;;;8.80;99.90;;;;;;5022146;28;20403;-76
2023/03/25 06:33:14;;;;;;;21.98;3.70;;;8.80;99.90;;;;;;5018893;28;20463;-76
2023/03/25 06:35:44;;;;;;;24.35;4.47;;;8.80;99.90;;;;;;5022117;28;20521;-76
2023/03/25 06:38:09;;;;;;;23.00;3.95;;;8.90;99.90;;;;;;5019467;28;20431;-76
2023/03/25 06:40:36;;;;;;;16.50;3.33;;;8.90;99.90;;;;;;5019726;28;20426;-76
2023/03/25 06:43:04;;;;;;;19.75;3.70;;;8.90;99.90;;;;;;5019557;28;20431;-76
2023/03/25 06:45:30;;;;;;;24.45;4.30;;;9.00;99.90;;;;;;5021325;28;20404;-76
2023/03/25 06:47:55;;;;;;;21.98;3.92;;;9.00;99.90;;;;;;5008807;28;20487;-76
2023/03/25 06:50:21;;;;;;;21.03;3.77;;;9.00;99.90;;;;;;4994500;28;20821;-77
2023/03/25 06:52:46;;;;;;;17.92;3.53;;;9.00;99.90;;;;;;5019512;28;20411;-76
2023/03/25 06:55:12;;;;;;;24.77;4.50;;;9.10;99.90;;;;;;5022725;28;20414;-76
2023/03/25 06:57:38;;;;;;;28.10;4.88;;;9.10;99.90;;;;;;5020068;28;20879;-76
2023/03/25 07:00:05;;;;;;;19.50;3.20;;;9.10;99.90;;;;;;5015035;28;20413;-76
2023/03/25 07:02:31;;;;;;;15.25;2.50;;;9.00;99.90;;;;;;5016884;28;20909;-76
2023/03/25 07:04:56;;;;;;;17.20;2.77;;;8.80;99.90;;;;;;5006831;28;20417;-76
2023/03/25 07:07:22;;;;;;;15.15;2.40;;;8.60;99.90;;;;;;5006570;28;20401;-76
2023/03/25 07:09:54;;;;;;;14.70;2.80;;;8.40;99.90;;;;;;5006922;28;20405;-76
2023/03/25 07:12:23;;;;;;;20.75;3.30;;;8.30;99.90;;;;;;5011325;28;20407;-75
2023/03/25 07:14:56;;;;;;;16.40;2.53;;;8.30;99.90;;;;;;5011949;28;20410;-76
2023/03/25 07:17:22;;;;;;;23.83;3.80;;;8.20;99.90;;;;;;5006408;28;20512;-76
2023/03/25 07:19:49;;;;;;;24.65;4.00;;;8.30;99.90;;;;;;5004923;28;20458;-76
2023/03/25 07:22:15;;;;;;;25.58;4.22;;;8.40;99.90;;;;;;5004942;28;20908;-76
2023/03/25 07:24:40;;;;;;;26.60;4.80;;;8.50;99.90;;;;;;5006061;28;20420;-76
2023/03/25 07:27:06;;;;;;;25.17;4.38;;;8.60;99.90;;;;;;4988816;28;20413;-76
2023/03/25 07:29:32;;;;;;;24.60;3.93;;;8.60;99.90;;;;;;5006075;28;20417;-76
2023/03/25 07:31:57;;;;;;;21.23;3.25;;;8.70;99.90;;;;;;4988172;28;20474;-76
2023/03/25 07:34:23;;;;;;;23.60;4.37;;;8.80;99.90;;;;;;5006358;28;20959;-75
2023/03/25 07:36:49;;;;;;;21.45;3.50;;;8.90;99.90;;;;;;5006560;28;20953;-76
2023/03/25 07:39:15;;;;;;;25.35;4.30;;;9.00;99.90;;;;;;5004398;28;20413;-76
2023/03/25 07:41:41;;;;;;;19.98;3.47;;;9.10;99.90;;;;;;5017012;28;20457;-76
2023/03/25 07:44:07;;;;;;;22.85;3.55;;;9.30;99.90;;;;;;5003224;28;20402;-76
2023/03/25 07:46:33;;;;;;;19.17;3.17;;;9.40;99.90;;;;;;5014573;28;20775;-77
2023/03/25 07:48:58;;;;;;;17.37;3.17;;;9.40;99.90;;;;;;4996226;28;20418;-77
2023/03/25 07:51:24;;;;;;;11.27;1.73;;;9.40;99.90;;;;;;4993395;28;20406;-77
2023/03/25 07:53:50;;;;;;;12.53;1.87;;;9.30;99.90;;;;;;4996474;28;20776;-78
2023/03/25 07:56:15;;;;;;;10.82;1.80;;;9.00;99.90;;;;;;5002195;28;20480;-78
2023/03/25 07:58:43;;;;;;;10.00;1.43;;;8.80;99.90;;;;;;4994023;28;20934;-78
2023/03/25 08:01:09;;;;;;;7.25;1.10;;;8.60;99.90;;;;;;5002901;28;20426;-78
2023/03/25 08:03:37;;;;;;;9.93;1.45;;;8.40;99.90;;;;;;5024895;28;20401;-78
2023/03/25 08:06:03;;;;;;;11.50;1.80;;;8.30;99.90;;;;;;4996812;28;20868;-78
2023/03/25 08:08:29;;;;;;;10.43;1.60;;;8.20;99.90;;;;;;4991645;28;20489;-79
2023/03/25 08:10:55;;;;;;;10.98;2.22;;;8.10;99.90;;;;;;4994764;28;20410;-78
2023/03/25 08:13:21;;;;;;;16.70;2.35;;;8.20;99.90;;;;;;5002638;28;20414;-77
2023/03/25 08:15:47;;;;;;;17.17;3.47;;;8.20;99.90;;;;;;5004352;28;20417;-78
2023/03/25 08:18:13;;;;;;;16.13;2.97;;;8.20;99.90;;;;;;5000012;28;20913;-78
2023/03/25 08:20:38;;;;;;;18.87;3.03;;;8.20;99.90;;;;;;4999724;28;20452;-78
2023/03/25 08:23:09;;;;;;;17.40;2.83;;;8.20;99.90;;;;;;5001122;28;20412;-77
2023/03/25 08:25:39;;;;;;;14.80;2.97;;;8.30;99.90;;;;;;4997715;28;20926;-78
2023/03/25 08:28:05;;;;;;;14.02;2.40;;;8.40;99.90;;;;;;4994470;28;20436;-78
2023/03/25 08:30:39;;;;;;;16.20;2.67;;;8.50;99.90;;;;;;5006365;28;20413;-78
2023/03/25 08:33:08;;;;;;;14.90;2.30;;;8.70;99.90;;;;;;4996250;28;20430;-78
2023/03/25 08:35:36;;;;;;;15.07;2.33;;;8.80;99.90;;;;;;5003431;28;20409;-78
2023/03/25 08:38:04;;;;;;;15.75;2.30;;;8.90;99.90;;;;;;5006415;28;20473;-77
2023/03/25 08:40:31;;;;;;;14.38;2.22;;;9.00;99.90;;;;;;5006397;28;20409;-78
2023/03/25 08:42:57;;;;;;;16.88;2.15;;;9.00;99.90;;;;;;5008210;28;20408;-77
2023/03/25 08:45:22;;;;;;;13.77;2.42;;;8.90;99.90;;;;;;5026556;28;20431;-78
2023/03/25 08:47:48;;;;;;;17.37;3.30;;;8.90;99.90;;;;;;5008608;28;20897;-78
2023/03/25 08:50:13;;;;;;;17.55;2.70;;;8.90;99.90;;;;;;5003404;28;20439;-77
2023/03/25 08:52:40;;;;;;;17.33;2.90;;;8.90;99.90;;;;;;5006696;28;20455;-78
2023/03/25 08:55:08;;;;;;;16.98;2.30;;;9.00;99.90;;;;;;5007719;28;20411;-77
2023/03/25 08:57:36;;;;;;;15.70;2.88;;;9.00;99.90;;;;;;5009714;28;21121;-76
2023/03/25 09:00:05;;;;;;;17.30;3.35;;;9.00;99.90;;;;;;5008444;28;20411;-77
2023/03/25 09:02:31;;;;;;;12.82;2.25;;;9.00;99.90;;;;;;5007568;28;20507;-76
2023/03/25 09:04:57;;;;;;;11.75;2.42;;;9.00;99.90;;;;;;5000859;28;20511;-77
2023/03/25 09:07:22;;;;;;;12.90;2.30;;;9.00;99.90;;;;;;4998438;28;20418;-77
2023/03/25 09:09:48;;;;;;;14.82;2.42;;;9.00;99.90;;;;;;5012064;28;20447;-77
2023/03/25 09:12:14;;;;;;;14.03;2.17;;;9.00;99.90;;;;;;5015929;28;20402;-77
2023/03/25 09:14:39;;;;;;;13.68;2.45;;;9.20;99.90;;;;;;4993839;28;20484;-77
2023/03/25 09:17:06;;;;;;;13.70;1.85;;;9.20;99.90;;;;;;5009752;28;20440;-77
2023/03/25 09:19:33;;;;;;;12.10;2.50;;;9.30;99.90;;;;;;5010324;28;20472;-77
2023/03/25 09:22:00;;;;;;;13.57;2.03;;;9.30;99.90;;;;;;5016018;28;20455;-76
2023/03/25 09:24:25;;;;;;;12.95;2.38;;;9.50;99.90;;;;;;5013651;28;20416;-76
2023/03/25 09:26:51;;;;;;;10.50;1.93;;;9.90;99.90;;;;;;5007444;28;20419;-76
2023/03/25 09:29:17;;;;;;;18.20;2.78;;;10.20;99.90;;;;;;5012082;28;20409;-77
2023/03/25 09:31:42;;;;;;;13.70;2.67;;;10.60;99.90;;;;;;5011161;28;20423;-77
2023/03/25 09:34:08;;;;;;;18.13;2.65;;;10.80;99.90;;;;;;5015857;28;20420;-77
2023/03/25 09:36:33;;;;;;;14.90;2.50;;;10.90;99.90;;;;;;5008436;28;20421;-77
2023/03/25 09:38:59;;;;;;;13.85;2.80;;;11.00;99.90;;;;;;5012979;28;20449;-77
2023/03/25 09:41:51;;;;;;;13.67;2.63;;;11.00;99.90;;;;;;5012106;28;20476;-77
2023/03/25 09:44:25;;;;;;;12.38;2.28;;;11.00;99.90;;;;;;5010732;28;20409;-77
2023/03/25 09:46:51;;;;;;;13.38;2.83;;;11.10;99.90;;;;;;5011673;28;20423;-77
2023/03/25 09:49:24;;;;;;;15.55;2.78;;;11.30;99.90;;;;;;5007473;28;20799;-77
2023/03/25 09:51:52;;;;;;;11.65;2.30;;;11.30;99.90;;;;;;5005048;28;20425;-77
2023/03/25 09:54:31;;;;;;;14.10;2.50;;;11.10;99.90;;;;;;5007278;28;20939;-77
2023/03/25 09:57:03;;;;;;;14.35;2.70;;;11.00;99.90;;;;;;5006343;28;20486;-78
2023/03/25 09:59:47;;;;;;;14.63;2.30;;;10.80;99.90;;;;;;5005941;28;20432;-77
2023/03/25 10:02:28;;;;;;;13.48;2.40;;;10.70;99.90;;;;;;5006912;28;20496;-78
2023/03/25 10:05:12;;;;;;;13.40;1.98;;;10.60;99.90;;;;;;5004192;28;20433;-77
2023/03/25 10:08:02;;;;;;;12.60;2.15;;;10.50;99.90;;;;;;5004811;28;20437;-77
2023/03/25 10:10:57;;;;;;;10.32;1.85;;;10.50;99.90;;;;;;5004634;28;20431;-77
2023/03/25 10:13:41;;;;;;;14.57;2.63;;;10.50;99.90;;;;;;5001353;28;20911;-78
2023/03/25 10:16:18;;;;;;;12.25;1.85;;;10.50;99.90;;;;;;4996239;28;20771;-77
2023/03/25 10:19:10;;;;;;;10.88;1.98;;;10.90;99.90;;;;;;5004473;28;20433;-77
2023/03/25 10:21:44;;;;;;;12.85;2.30;;;12.00;99.90;;;;;;5006605;28;20490;-78
2023/03/25 10:24:26;;;;;;;11.82;1.80;;;12.80;99.90;;;;;;5005043;28;21233;-77
2023/03/25 10:27:00;;;;;;;9.85;2.03;;;13.20;99.90;;;;;;4989331;28;20445;-78
2023/03/25 10:29:44;;;;;;;11.73;1.95;;;12.80;99.90;;;;;;5004986;28;20437;-78
2023/03/25 10:32:24;;;;;;;10.40;2.08;;;12.20;99.90;;;;;;5001637;28;21424;-77
2023/03/25 10:34:53;;;;;;;15.00;2.20;;;11.60;99.90;;;;;;4998689;28;20502;-77
2023/03/25 10:37:34;;;;;;;10.98;2.05;;;11.40;99.90;;;;;;5014004;28;20441;-78
2023/03/25 10:40:23;;;;;;;12.82;1.95;;;11.30;99.90;;;;;;4999308;28;20457;-78
2023/03/25 10:43:22;;;;;;;14.55;2.42;;;11.10;99.90;;;;;;5011671;28;20431;-77
2023/03/25 10:45:49;;;;;;;12.82;2.15;;;11.00;99.90;;;;;;5009583;28;20480;-77
2023/03/25 10:48:28;;;;;;;9.73;1.63;;;10.90;99.90;;;;;;5016980;28;20526;-77
2023/03/25 10:51:08;;;;;;;12.10;1.97;;;10.90;99.90;;;;;;5008220;28;20507;-78
2023/03/25 10:53:35;;;;;;;13.05;2.20;;;10.80;99.90;;;;;;5014409;28;20458;-78
2023/03/25 10:56:14;;;;;;;12.93;2.58;;;10.90;99.90;;;;;;5007865;28;20445;-78
2023/03/25 10:58:42;;;;;;;15.55;2.75;;;11.80;99.90;;;;;;5009233;28;20436;-78
2023/03/25 11:01:14;;;;;;;15.40;3.13;;;12.30;99.90;;;;;;5005567;28;20413;-77
2023/03/25 11:03:41;;;;;;;14.07;2.47;;;12.10;99.90;;;;;;5009221;28;20432;-75
2023/03/25 11:06:25;;;;;;;13.50;2.45;;;11.80;99.90;;;;;;5002233;28;20429;-76
2023/03/25 11:09:14;;;;;;;15.73;2.80;;;11.80;99.90;;;;;;5002174;28;20441;-76
2023/03/25 11:11:41;;;;;;;15.65;3.00;;;11.70;99.90;;;;;;5012828;28;20444;-77
2023/03/25 11:14:07;;;;;;;15.15;2.30;;;11.50;99.90;;;;;;5014316;28;20484;-75
2023/03/25 11:16:39;;;;;;;15.88;2.38;;;11.40;99.90;;;;;;5014501;28;20780;-76
2023/03/25 11:19:04;;;;;;;10.90;2.10;;;11.30;99.90;;;;;;5012560;28;20427;-76
2023/03/25 11:21:35;;;;;;;13.73;1.87;;;11.30;99.90;;;;;;5013854;28;20416;-76
2023/03/25 11:24:04;;;;;;;16.70;2.30;;;11.40;99.90;;;;;;5013472;28;20424;-77
2023/03/25 11:26:40;;;;;;;14.70;2.28;;;11.40;99.90;;;;;;5000466;28;20435;-76
2023/03/25 11:29:11;;;;;;;14.43;2.53;;;11.50;99.90;;;;;;5011759;28;20431;-76
2023/03/25 11:31:39;;;;;;;12.13;2.65;;;11.60;99.90;;;;;;5014344;28;20452;-76
2023/03/25 11:34:11;;;;;;;14.05;2.10;;;11.70;99.90;;;;;;5010306;28;20457;-76
2023/03/25 11:36:58;;;;;;;13.03;2.00;;;11.70;99.90;;;;;;5013998;28;20790;-76
2023/03/25 11:39:28;;;;;;;15.02;2.60;;;11.70;99.90;;;;;;5026353;28;20520;-76
2023/03/25 11:41:54;;;;;;;18.08;2.70;;;12.00;99.90;;;;;;5001480;28;20420;-76
2023/03/25 11:44:31;;;;;;;12.65;2.42;;;12.10;99.90;;;;;;5039512;28;20415;-76
2023/03/25 11:47:06;;;;;;;11.93;1.98;;;12.00;99.90;;;;;;5010036;28;20846;-76
2023/03/25 11:49:40;;;;;;;14.45;2.40;;;11.90;99.90;;;;;;5017725;28;20420;-75
2023/03/25 11:52:17;;;;;;;15.73;2.50;;;11.80;99.90;;;;;;5014755;28;20469;-76
2023/03/25 11:54:43;;;;;;;10.70;1.95;;;11.90;99.90;;;;;;5005897;28;20407;-76
2023/03/25 11:57:17;;;;;;;12.00;1.65;;;11.90;99.90;;;;;;5014189;28;20428;-76
2023/03/25 11:59:45;;;;;;;11.68;2.00;;;11.80;99.90;;;;;;5007339;28;20404;-76
2023/03/25 12:02:28;;;;;;;9.73;2.38;;;12.00;99.90;;;;;;5003483;28;20440;-76
2023/03/25 12:04:59;;;;;;;11.25;2.03;;;12.50;99.90;;;;;;5014591;28;20468;-76
2023/03/25 12:07:25;;;;;;;9.52;1.70;;;12.70;99.90;;;;;;5013039;28;20420;-76
2023/03/25 12:10:04;;;;;;;8.13;1.40;;;12.80;99.90;;;;;;5005682;28;20416;-76
2023/03/25 12:12:46;;;;;;;10.77;1.90;;;12.90;99.90;;;;;;5004024;28;20432;-76
2023/03/25 12:15:23;;;;;;;10.50;1.58;;;13.40;99.90;;;;;;5014377;28;20424;-76
2023/03/25 12:18:26;;;;;;;9.93;1.63;;;13.80;99.90;;;;;;5017313;28;20763;-76
2023/03/25 12:21:16;;;;;;;8.23;1.58;;;13.80;99.90;;;;;;4998530;28;20425;-76
2023/03/25 12:24:12;;;;;;;11.77;1.95;;;13.60;99.90;;;;;;5008520;28;20454;-76
2023/03/25 12:26:38;;;;;;;9.75;1.60;;;13.20;99.90;;;;;;5009161;28;20518;-75
2023/03/25 12:29:21;;;;;;;10.27;1.90;;;12.90;99.90;;;;;;5003739;28;20433;-76
2023/03/25 12:32:19;;;;;;;12.45;1.80;;;12.50;99.90;;;;;;5009821;28;21006;-75
2023/03/25 12:35:13;;;;;;;10.38;1.80;;;12.30;99.90;;;;;;5003521;28;20429;-75
2023/03/25 12:38:09;;;;;;;11.95;1.95;;;12.20;99.90;;;;;;5018900;28;20498;-75
2023/03/25 12:40:38;;;;;;;9.90;2.07;;;12.30;99.90;;;;;;5008504;28;20420;-76
2023/03/25 12:43:09;;;;;;;8.52;1.50;;;12.30;99.90;;;;;;5008962;28;20472;-75
2023/03/25 12:46:13;;;;;;;9.65;1.85;;;12.40;99.90;;;;;;5000462;28;20417;-75
2023/03/25 12:49:00;;;;;;;9.15;1.70;;;12.30;99.90;;;;;;5008675;28;20425;-78
2023/03/25 12:51:43;;;;;;;10.45;1.63;;;12.10;99.90;;;;;;5009496;28;20485;-76
2023/03/25 12:54:18;;;;;;;10.52;1.63;;;12.00;99.90;;;;;;5009337;28;20439;-77
2023/03/25 12:57:22;;;;;;;11.10;1.83;;;11.90;99.90;;;;;;5008331;28;20996;-76
2023/03/25 13:00:00;;;;;;;14.23;2.40;;;11.70;99.90;;;;;;5000732;28;20564;-73
2023/03/25 13:02:57;;;;;;;10.82;2.15;;;11.50;99.90;;;;;;5005289;28;20863;-73
2023/03/25 13:05:31;;;;;;;14.35;2.78;;;11.50;99.90;;;;;;5009077;28;20795;-73
2023/03/25 13:08:18;;;;;;;10.35;1.60;;;11.60;99.90;;;;;;5009550;28;20417;-73